createdAt,value
2022-12-23T00:02:32.530Z,20.33
2022-12-23T00:05:40.620Z,20.60
2022-12-23T00:08:42.853Z,20.77
2022-12-23T00:11:44.197Z,22.08
2022-12-23T00:14:45.579Z,18.83
2022-12-23T00:17:46.921Z,19.50
2022-12-23T00:20:48.321Z,18.70
2022-12-23T00:23:51.023Z,19.45
2022-12-23T00:26:52.407Z,18.48
2022-12-23T00:29:53.776Z,18.27
2022-12-23T00:32:55.159Z,20.15
2022-12-23T00:35:56.550Z,19.25
2022-12-23T00:38:59.250Z,20.60
2022-12-23T00:42:00.653Z,21.43
2022-12-23T00:45:02.008Z,20.20
2022-12-23T00:48:03.561Z,21.00
2022-12-23T00:51:05.108Z,20.27
2022-12-23T00:54:06.610Z,22.15
2022-12-23T00:57:08.010Z,21.60
2022-12-23T01:00:09.963Z,21.35
2022-12-23T01:03:12.607Z,22.75
2022-12-23T01:06:14.119Z,19.95
2022-12-23T01:09:15.491Z,21.40
2022-12-23T01:12:16.892Z,21.35
2022-12-23T01:15:18.227Z,21.00
2022-12-23T01:18:19.568Z,20.67
2022-12-23T01:21:20.931Z,22.05
2022-12-23T01:24:22.719Z,22.55
2022-12-23T01:27:24.061Z,22.92
2022-12-23T01:30:25.424Z,22.65
2022-12-23T01:33:26.836Z,22.63
2022-12-23T01:36:28.192Z,22.73
2022-12-23T01:39:29.580Z,22.10
2022-12-23T01:42:31.179Z,21.08
2022-12-23T01:45:33.522Z,23.73
2022-12-23T01:48:35.370Z,23.08
2022-12-23T01:51:36.752Z,22.30
2022-12-23T01:54:39.367Z,21.17
2022-12-23T01:57:42.671Z,23.40
2022-12-23T02:00:46.392Z,23.80
2022-12-23T02:03:49.287Z,22.92
2022-12-23T02:06:51.392Z,23.40
2022-12-23T02:09:53.073Z,23.42
2022-12-23T02:13:19.221Z,24.08
2022-12-23T02:16:20.825Z,22.13
2022-12-23T02:19:57.289Z,23.70
2022-12-23T02:23:28.104Z,22.60
2022-12-23T02:27:07.961Z,22.85
2022-12-23T02:30:27.179Z,23.67
2022-12-23T02:33:38.282Z,21.92
2022-12-23T02:37:03.934Z,25.25
2022-12-23T02:40:18.357Z,23.98
2022-12-23T02:43:54.031Z,24.75
2022-12-23T02:47:02.834Z,25.15
2022-12-23T02:50:11.050Z,24.48
2022-12-23T02:53:19.712Z,25.95
2022-12-23T02:56:25.371Z,25.55
2022-12-23T02:59:30.785Z,26.95
2022-12-23T03:02:35.845Z,27.15
2022-12-23T03:05:44.309Z,28.58
2022-12-23T03:08:45.856Z,25.65
2022-12-23T03:12:11.106Z,28.02
2022-12-23T03:15:27.713Z,27.05
2022-12-23T03:18:48.039Z,26.00
2022-12-23T03:22:08.209Z,28.00
2022-12-23T03:25:34.395Z,28.35
2022-12-23T03:28:43.523Z,27.50
2022-12-23T03:31:46.245Z,27.63
2022-12-23T03:34:51.931Z,28.02
2022-12-23T03:37:56.027Z,27.33
2022-12-23T03:41:05.524Z,28.88
2022-12-23T03:44:13.374Z,31.00
2022-12-23T03:47:18.658Z,31.83
2022-12-23T03:50:22.547Z,31.90
2022-12-23T03:53:35.030Z,30.80
2022-12-23T03:56:41.232Z,29.45
2022-12-23T03:59:45.118Z,28.92
2022-12-23T04:02:58.027Z,29.38
2022-12-23T04:06:02.428Z,29.90
2022-12-23T04:09:05.945Z,28.40
2022-12-23T04:12:08.016Z,29.77
2022-12-23T04:15:13.053Z,30.73
2022-12-23T04:18:14.817Z,31.15
2022-12-23T04:21:16.215Z,34.50
2022-12-23T04:24:17.642Z,32.78
2022-12-23T04:27:19.211Z,33.65
2022-12-23T04:30:20.625Z,34.97
2022-12-23T04:33:22.019Z,33.65
2022-12-23T04:36:23.476Z,33.40
2022-12-23T04:39:24.871Z,34.05
2022-12-23T04:42:26.254Z,34.38
2022-12-23T04:45:27.613Z,34.20
2022-12-23T04:48:29.075Z,33.85
2022-12-23T04:51:30.412Z,36.00
2022-12-23T04:54:31.795Z,34.92
2022-12-23T04:57:33.237Z,36.97
2022-12-23T05:00:39.422Z,33.08
2022-12-23T05:03:41.538Z,34.28
2022-12-23T05:06:42.925Z,35.88
2022-12-23T05:09:44.271Z,36.17
2022-12-23T05:12:45.672Z,33.75
2022-12-23T05:15:50.146Z,38.92
2022-12-23T05:18:51.621Z,37.22
2022-12-23T05:21:53.013Z,36.97
2022-12-23T05:24:54.346Z,41.60
2022-12-23T05:27:55.716Z,38.03
2022-12-23T05:31:01.757Z,39.13
2022-12-23T05:34:06.576Z,38.03
2022-12-23T05:37:08.552Z,40.17
2022-12-23T05:40:10.232Z,38.65
2022-12-23T05:43:11.958Z,35.78
2022-12-23T05:46:13.403Z,37.92
2022-12-23T05:49:14.814Z,39.05
2022-12-23T05:52:16.178Z,38.03
2022-12-23T05:55:18.401Z,36.78
2022-12-23T05:58:19.741Z,39.53
2022-12-23T06:01:21.133Z,37.80
2022-12-23T06:04:22.573Z,39.25
2022-12-23T06:07:24.065Z,35.03
2022-12-23T06:10:25.474Z,35.38
2022-12-23T06:13:26.900Z,39.92
2022-12-23T06:16:28.568Z,43.95
2022-12-23T06:19:29.992Z,42.30
2022-12-23T06:22:31.593Z,39.45
2022-12-23T06:25:32.944Z,39.42
2022-12-23T06:28:34.858Z,40.22
2022-12-23T06:31:36.361Z,38.55
2022-12-23T06:34:37.871Z,43.92
2022-12-23T06:37:39.218Z,41.40
2022-12-23T06:40:40.769Z,39.15
2022-12-23T06:43:42.136Z,46.97
2022-12-23T06:46:43.499Z,38.80
2022-12-23T06:49:44.817Z,40.45
2022-12-23T06:52:46.230Z,42.67
2022-12-23T06:55:47.566Z,41.53
2022-12-23T06:58:48.913Z,41.53
2022-12-23T07:01:50.424Z,41.22
2022-12-23T07:04:51.817Z,44.42
2022-12-23T07:07:53.188Z,45.33
2022-12-23T07:11:00.157Z,45.80
2022-12-23T07:14:01.530Z,36.95
2022-12-23T07:17:02.985Z,40.55
2022-12-23T07:20:05.579Z,46.92
2022-12-23T07:23:06.922Z,44.27
2022-12-23T07:26:08.309Z,36.33
2022-12-23T07:29:09.731Z,33.63
2022-12-23T07:32:11.197Z,35.83
2022-12-23T07:35:12.589Z,39.53
2022-12-23T07:38:13.985Z,35.60
2022-12-23T07:41:15.393Z,38.95
2022-12-23T07:44:16.962Z,37.38
2022-12-23T07:47:18.280Z,33.90
2022-12-23T07:50:19.657Z,45.95
2022-12-23T07:53:20.996Z,42.67
2022-12-23T07:56:22.561Z,33.60
2022-12-23T07:59:25.975Z,35.03
2022-12-23T08:05:28.885Z,35.80
2022-12-23T08:08:31.046Z,34.30
2022-12-23T08:11:32.393Z,36.05
2022-12-23T08:14:33.744Z,33.97
2022-12-23T08:17:35.190Z,38.58
2022-12-23T08:20:36.527Z,33.17
2022-12-23T08:23:37.859Z,38.63
2022-12-23T08:26:39.259Z,34.58
2022-12-23T08:29:40.622Z,37.78
2022-12-23T08:32:42.006Z,35.03
2022-12-23T08:35:43.351Z,33.65
2022-12-23T08:38:45.045Z,34.78
2022-12-23T08:41:47.928Z,29.70
2022-12-23T08:47:51.526Z,31.73
2022-12-23T08:50:53.134Z,29.70
2022-12-23T08:54:00.414Z,28.80
2022-12-23T08:57:02.129Z,29.60
2022-12-23T09:00:03.987Z,28.08
2022-12-23T09:03:05.984Z,27.92
2022-12-23T09:06:12.557Z,23.98
2022-12-23T09:09:15.012Z,23.67
2022-12-23T09:12:16.357Z,24.37
2022-12-23T09:15:17.856Z,23.48
2022-12-23T09:18:19.343Z,19.48
2022-12-23T09:21:22.657Z,21.80
2022-12-23T09:24:24.331Z,21.65
2022-12-23T09:27:25.996Z,22.95
2022-12-23T09:30:27.713Z,22.02
2022-12-23T09:33:29.055Z,21.15
2022-12-23T09:36:30.457Z,22.30
2022-12-23T09:39:31.854Z,22.10
2022-12-23T09:42:49.804Z,21.58
2022-12-23T09:46:14.968Z,23.20
2022-12-23T09:49:17.910Z,21.42
2022-12-23T09:52:36.276Z,21.33
2022-12-23T09:55:50.219Z,22.25
2022-12-23T09:59:29.603Z,21.05
2022-12-23T10:02:50.643Z,22.92
2022-12-23T10:06:12.873Z,23.20
2022-12-23T10:09:17.344Z,24.02
2022-12-23T10:12:32.888Z,22.73
2022-12-23T10:15:41.153Z,21.45
2022-12-23T10:18:50.372Z,22.50
2022-12-23T10:21:59.808Z,22.25
2022-12-23T10:25:05.358Z,21.45
2022-12-23T10:28:09.954Z,22.55
2022-12-23T10:31:39.379Z,23.50
2022-12-23T10:34:57.182Z,24.55
2022-12-23T10:38:01.623Z,23.02
2022-12-23T10:41:09.662Z,21.90
2022-12-23T10:44:29.412Z,20.15
2022-12-23T10:47:54.902Z,20.77
2022-12-23T10:51:09.785Z,22.73
2022-12-23T10:54:16.742Z,18.88
2022-12-23T10:57:19.839Z,20.80
2022-12-23T11:00:23.555Z,23.27
2022-12-23T11:03:31.234Z,21.15
2022-12-23T11:06:38.453Z,19.58
2022-12-23T11:09:43.690Z,21.60
2022-12-23T11:12:50.291Z,20.27
2022-12-23T11:15:51.869Z,19.30
2022-12-23T11:18:56.953Z,19.65
2022-12-23T11:22:00.045Z,19.65
2022-12-23T11:25:37.048Z,19.98
2022-12-23T11:28:48.168Z,19.65
2022-12-23T11:31:50.579Z,19.42
2022-12-23T11:34:53.003Z,19.40
2022-12-23T11:37:55.920Z,20.13
2022-12-23T11:40:57.774Z,20.88
2022-12-23T11:44:04.494Z,20.58
2022-12-23T11:47:17.791Z,32.75
2022-12-23T11:50:34.484Z,28.60
2022-12-23T11:53:35.916Z,20.27
2022-12-23T11:56:40.236Z,20.73
2022-12-23T11:59:48.841Z,21.38
2022-12-23T12:02:52.418Z,22.40
2022-12-23T12:06:06.963Z,24.05
2022-12-23T12:09:13.110Z,19.08
2022-12-23T12:12:20.010Z,19.98
2022-12-23T12:15:41.155Z,18.63
2022-12-23T12:18:46.251Z,20.80
2022-12-23T12:21:54.504Z,21.92
2022-12-23T12:24:58.606Z,24.10
2022-12-23T12:28:04.164Z,20.63
2022-12-23T12:31:21.172Z,20.75
2022-12-23T12:34:44.092Z,19.48
2022-12-23T12:37:51.185Z,18.23
2022-12-23T12:40:57.840Z,17.90
2022-12-23T12:44:09.769Z,18.70
2022-12-23T12:51:12.937Z,18.50
2022-12-23T12:54:24.057Z,19.30
2022-12-23T12:57:25.889Z,20.65
2022-12-23T13:00:27.351Z,21.15
2022-12-23T13:04:07.570Z,20.92
2022-12-23T13:07:15.023Z,19.42
2022-12-23T13:10:32.446Z,20.58
2022-12-23T13:14:01.010Z,20.95
2022-12-23T13:17:07.142Z,20.00
2022-12-23T13:20:20.325Z,19.48
2022-12-23T13:23:44.387Z,21.02
2022-12-23T13:26:58.684Z,20.90
2022-12-23T13:30:09.931Z,21.65
2022-12-23T13:33:28.312Z,20.58
2022-12-23T13:36:52.491Z,21.55
2022-12-23T13:40:08.079Z,22.15
2022-12-23T13:43:15.782Z,21.83
2022-12-23T13:47:05.581Z,20.30
2022-12-23T13:50:26.608Z,19.08
2022-12-23T13:53:51.978Z,15.52
2022-12-23T13:57:06.981Z,16.33
2022-12-23T14:00:17.371Z,16.98
2022-12-23T14:03:23.581Z,15.63
2022-12-23T14:06:24.878Z,14.55
2022-12-23T14:09:35.659Z,15.10
2022-12-23T14:12:41.989Z,15.05
2022-12-23T14:16:12.525Z,16.63
2022-12-23T14:19:49.950Z,16.75
2022-12-23T14:23:09.724Z,16.58
2022-12-23T14:26:30.073Z,16.98
2022-12-23T14:29:43.582Z,16.67
2022-12-23T14:32:59.375Z,17.55
2022-12-23T14:36:22.460Z,17.95
2022-12-23T14:39:31.716Z,22.25
2022-12-23T14:42:41.158Z,23.80
2022-12-23T14:45:43.330Z,21.23
2022-12-23T14:48:44.660Z,22.33
2022-12-23T14:51:46.060Z,21.13
2022-12-23T14:55:20.726Z,20.90
2022-12-23T14:58:17.832Z,24.38
2022-12-23T15:01:31.650Z,21.15
2022-12-23T15:04:49.909Z,19.48
2022-12-23T15:07:53.083Z,21.70
2022-12-23T15:10:56.483Z,20.80
2022-12-23T15:17:14.756Z,18.15
2022-12-23T15:20:26.261Z,18.80
2022-12-23T15:23:27.802Z,21.10
2022-12-23T15:26:32.445Z,20.13
2022-12-23T15:29:33.857Z,21.73
2022-12-23T15:32:35.257Z,19.90
2022-12-23T15:35:39.572Z,18.85
2022-12-23T15:38:41.504Z,21.83
2022-12-23T15:41:45.101Z,19.75
2022-12-23T15:44:46.481Z,20.77
2022-12-23T15:47:47.905Z,18.05
2022-12-23T15:50:53.044Z,18.45
2022-12-23T15:53:59.326Z,21.02
2022-12-23T15:57:02.727Z,19.48
2022-12-23T16:03:30.181Z,17.60
2022-12-23T16:06:33.904Z,17.70
2022-12-23T16:09:36.454Z,14.65
2022-12-23T16:12:38.777Z,14.93
2022-12-23T16:15:40.169Z,14.05
2022-12-23T16:18:47.253Z,14.25
2022-12-23T16:21:49.249Z,14.07
2022-12-23T16:24:53.079Z,13.18
2022-12-23T16:28:14.528Z,13.68
2022-12-23T16:31:19.259Z,15.88
2022-12-23T16:34:20.825Z,13.05
2022-12-23T16:37:22.176Z,13.20
2022-12-23T16:40:23.568Z,13.35
2022-12-23T16:43:25.304Z,15.60
2022-12-23T16:46:27.720Z,13.98
2022-12-23T16:49:33.633Z,15.77
2022-12-23T16:52:35.455Z,15.10
2022-12-23T16:55:36.797Z,14.88
2022-12-23T16:58:38.508Z,16.08
2022-12-23T17:01:44.373Z,15.25
2022-12-23T17:04:45.847Z,15.57
2022-12-23T17:07:47.759Z,14.43
2022-12-23T17:10:50.407Z,14.87
2022-12-23T17:13:55.301Z,16.38
2022-12-23T17:16:59.368Z,17.27
2022-12-23T17:20:00.774Z,17.65
2022-12-23T17:23:02.216Z,17.50
2022-12-23T17:26:03.591Z,18.50
2022-12-23T17:29:05.981Z,18.90
2022-12-23T17:32:12.094Z,19.25
2022-12-23T17:35:15.012Z,17.85
2022-12-23T17:38:16.582Z,17.83
2022-12-23T17:41:28.875Z,16.20
2022-12-23T17:44:30.237Z,17.40
2022-12-23T17:47:31.570Z,17.30
2022-12-23T17:50:34.789Z,16.73
2022-12-23T17:53:36.132Z,17.98
2022-12-23T17:56:37.499Z,23.77
2022-12-23T17:59:38.851Z,19.20
2022-12-23T18:02:40.760Z,18.13
2022-12-23T18:05:42.206Z,19.25
2022-12-23T18:08:43.709Z,19.23
2022-12-23T18:11:47.822Z,21.08
2022-12-23T18:14:49.311Z,22.27
2022-12-23T18:17:52.568Z,24.80
2022-12-23T18:20:56.828Z,22.60
2022-12-23T18:23:59.656Z,21.25
2022-12-23T18:27:01.036Z,22.90
2022-12-23T18:30:02.386Z,24.75
2022-12-23T18:33:05.283Z,24.42
2022-12-23T18:36:20.564Z,23.63
2022-12-23T18:39:21.985Z,26.52
2022-12-23T18:42:23.357Z,22.45
2022-12-23T18:45:30.835Z,23.60
2022-12-23T18:48:32.213Z,22.25
2022-12-23T18:51:33.563Z,21.88
2022-12-23T18:54:34.929Z,23.27
2022-12-23T18:57:36.290Z,25.10
2022-12-23T19:00:37.627Z,29.48
2022-12-23T19:03:39.022Z,29.27
2022-12-23T19:06:40.628Z,25.50
2022-12-23T19:09:42.007Z,24.83
2022-12-23T19:12:43.497Z,25.27
2022-12-23T19:15:45.648Z,24.33
2022-12-23T19:18:48.317Z,23.83
2022-12-23T19:21:49.687Z,25.43
2022-12-23T19:25:04.823Z,23.45
2022-12-23T19:28:08.027Z,24.80
2022-12-23T19:31:13.631Z,24.83
2022-12-23T19:34:16.033Z,25.60
2022-12-23T19:37:18.043Z,25.23
2022-12-23T19:40:19.450Z,25.67
2022-12-23T19:43:20.796Z,27.42
2022-12-23T19:46:22.166Z,25.92
2022-12-23T19:49:23.742Z,27.20
2022-12-23T19:52:25.335Z,26.17
2022-12-23T19:55:26.690Z,25.50
2022-12-23T19:58:34.108Z,24.50
2022-12-23T20:01:35.564Z,24.63
2022-12-23T20:04:36.999Z,26.63
2022-12-23T20:07:38.336Z,24.38
2022-12-23T20:10:40.824Z,25.03
2022-12-23T20:13:42.434Z,25.65
2022-12-23T20:16:44.541Z,25.17
2022-12-23T20:19:46.584Z,25.33
2022-12-23T20:22:48.020Z,25.20
2022-12-23T20:25:49.849Z,25.38
2022-12-23T20:28:51.213Z,24.70
2022-12-23T20:31:52.594Z,24.42
2022-12-23T20:34:53.947Z,25.58
2022-12-23T20:37:55.331Z,25.38
2022-12-23T20:40:56.658Z,25.85
2022-12-23T20:47:19.889Z,25.50
2022-12-23T20:50:21.431Z,25.23
2022-12-23T20:53:22.846Z,25.00
2022-12-23T20:56:24.202Z,26.80
2022-12-23T20:59:25.858Z,28.02
2022-12-23T21:02:27.290Z,25.90
2022-12-23T21:05:28.724Z,27.08
2022-12-23T21:08:30.091Z,26.10
2022-12-23T21:11:34.272Z,26.52
2022-12-23T21:14:35.819Z,24.92
2022-12-23T21:17:37.175Z,27.23
2022-12-23T21:20:38.514Z,25.48
2022-12-23T21:23:41.638Z,27.00
2022-12-23T21:26:43.887Z,27.08
2022-12-23T21:29:45.378Z,26.95
2022-12-23T21:32:46.753Z,27.10
2022-12-23T21:35:48.088Z,27.33
2022-12-23T21:38:49.886Z,25.65
2022-12-23T21:41:51.411Z,27.23
2022-12-23T21:44:53.027Z,26.25
2022-12-23T21:47:54.385Z,26.98
2022-12-23T21:50:55.793Z,25.85
2022-12-23T21:53:58.543Z,26.25
2022-12-23T21:56:59.887Z,27.70
2022-12-23T22:00:01.296Z,27.42
2022-12-23T22:03:02.680Z,25.40
2022-12-23T22:06:10.726Z,23.90
2022-12-23T22:09:18.490Z,25.05
2022-12-23T22:12:19.856Z,25.90
2022-12-23T22:15:21.213Z,25.45
2022-12-23T22:18:22.594Z,24.08
2022-12-23T22:21:26.342Z,24.85
2022-12-23T22:24:27.701Z,23.05
2022-12-23T22:27:29.059Z,23.30
2022-12-23T22:30:30.426Z,22.48
2022-12-23T22:33:32.996Z,22.05
2022-12-23T22:36:34.495Z,23.20
2022-12-23T22:39:35.977Z,21.52
2022-12-23T22:42:37.342Z,22.45
2022-12-23T22:45:38.778Z,21.13
2022-12-23T22:48:40.209Z,22.10
2022-12-23T22:51:42.792Z,20.80
2022-12-23T22:54:44.150Z,20.77
2022-12-23T22:57:45.504Z,23.08
2022-12-23T23:00:46.851Z,21.15
2022-12-23T23:03:49.777Z,21.58
2022-12-23T23:06:51.125Z,21.80
2022-12-23T23:09:52.508Z,22.70
2022-12-23T23:12:53.915Z,21.50
2022-12-23T23:15:55.459Z,21.17
2022-12-23T23:18:57.454Z,21.52
2022-12-23T23:21:58.803Z,20.63
2022-12-23T23:25:00.195Z,20.25
2022-12-23T23:28:01.583Z,20.85
2022-12-23T23:31:39.708Z,19.63
2022-12-23T23:34:24.374Z,20.23
2022-12-23T23:37:25.703Z,18.90
2022-12-23T23:40:27.123Z,17.30
2022-12-23T23:43:28.544Z,17.77
2022-12-23T23:46:30.138Z,17.45
2022-12-23T23:49:31.572Z,17.23
2022-12-23T23:52:33.151Z,17.05
2022-12-23T23:55:34.530Z,16.88
2022-12-23T23:58:36.890Z,16.60
